sensor_id;sensor_type;location;lat;lon;timestamp;temperature;humidity
67603;DHT22;54417;47.454;18.918;2022-09-12T00:04:03;13.07;86.91
67603;DHT22;54417;47.454;18.918;2022-09-12T00:09:27;12.93;87.11
67603;DHT22;54417;47.454;18.918;2022-09-12T00:14:50;13.03;86.84
67603;DHT22;54417;47.454;18.918;2022-09-12T00:20:16;13.04;86.55
67603;DHT22;54417;47.454;18.918;2022-09-12T00:25:40;12.90;86.82
67603;DHT22;54417;47.454;18.918;2022-09-12T00:31:06;12.89;87.17
67603;DHT22;54417;47.454;18.918;2022-09-12T00:36:31;13.16;86.75
67603;DHT22;54417;47.454;18.918;2022-09-12T00:41:55;13.11;86.46
67603;DHT22;54417;47.454;18.918;2022-09-12T00:47:22;13.13;86.77
67603;DHT22;54417;47.454;18.918;2022-09-12T00:52:50;13.21;86.69
67603;DHT22;54417;47.454;18.918;2022-09-12T00:58:18;13.14;87.13
67603;DHT22;54417;47.454;18.918;2022-09-12T01:03:43;13.18;86.93
67603;DHT22;54417;47.454;18.918;2022-09-12T01:09:09;13.27;86.68
67603;DHT22;54417;47.454;18.918;2022-09-12T01:14:34;13.23;87.00
67603;DHT22;54417;47.454;18.918;2022-09-12T01:20:23;13.17;87.15
67603;DHT22;54417;47.454;18.918;2022-09-12T01:26:01;13.20;87.18
67603;DHT22;54417;47.454;18.918;2022-09-12T01:31:33;13.20;87.02
67603;DHT22;54417;47.454;18.918;2022-09-12T01:37:03;13.17;87.34
67603;DHT22;54417;47.454;18.918;2022-09-12T01:42:34;13.04;87.75
67603;DHT22;54417;47.454;18.918;2022-09-12T01:48:09;13.00;87.69
67603;DHT22;54417;47.454;18.918;2022-09-12T01:53:37;12.99;87.79
67603;DHT22;54417;47.454;18.918;2022-09-12T01:59:07;13.00;87.78
67603;DHT22;54417;47.454;18.918;2022-09-12T02:04:39;13.11;87.32
67603;DHT22;54417;47.454;18.918;2022-09-12T02:10:08;13.02;87.28
67603;DHT22;54417;47.454;18.918;2022-09-12T02:15:36;13.06;87.72
67603;DHT22;54417;47.454;18.918;2022-09-12T02:21:04;13.00;87.67
67603;DHT22;54417;47.454;18.918;2022-09-12T02:26:33;13.06;87.60
67603;DHT22;54417;47.454;18.918;2022-09-12T02:32:00;13.00;87.81
67603;DHT22;54417;47.454;18.918;2022-09-12T02:37:33;12.87;88.01
67603;DHT22;54417;47.454;18.918;2022-09-12T02:43:02;12.85;88.16
67603;DHT22;54417;47.454;18.918;2022-09-12T02:48:29;13.04;87.29
67603;DHT22;54417;47.454;18.918;2022-09-12T02:53:56;12.95;87.31
67603;DHT22;54417;47.454;18.918;2022-09-12T02:59:21;12.86;87.64
67603;DHT22;54417;47.454;18.918;2022-09-12T03:04:58;12.86;87.31
67603;DHT22;54417;47.454;18.918;2022-09-12T03:10:32;12.63;87.60
67603;DHT22;54417;47.454;18.918;2022-09-12T03:16:06;12.52;88.26
67603;DHT22;54417;47.454;18.918;2022-09-12T03:21:41;12.58;87.87
67603;DHT22;54417;47.454;18.918;2022-09-12T03:27:13;12.59;87.43
67603;DHT22;54417;47.454;18.918;2022-09-12T03:32:39;12.59;87.14
67603;DHT22;54417;47.454;18.918;2022-09-12T03:38:04;12.60;87.16
67603;DHT22;54417;47.454;18.918;2022-09-12T03:43:30;12.76;86.17
67603;DHT22;54417;47.454;18.918;2022-09-12T03:48:54;12.76;86.09
67603;DHT22;54417;47.454;18.918;2022-09-12T03:54:18;12.69;86.30
67603;DHT22;54417;47.454;18.918;2022-09-12T03:59:43;12.56;86.69
67603;DHT22;54417;47.454;18.918;2022-09-12T04:05:07;12.46;87.02
67603;DHT22;54417;47.454;18.918;2022-09-12T04:10:31;12.38;87.04
67603;DHT22;54417;47.454;18.918;2022-09-12T04:15:58;12.34;87.15
67603;DHT22;54417;47.454;18.918;2022-09-12T04:21:21;12.38;86.82
67603;DHT22;54417;47.454;18.918;2022-09-12T04:26:45;12.27;87.25
67603;DHT22;54417;47.454;18.918;2022-09-12T04:32:10;12.16;87.87
67603;DHT22;54417;47.454;18.918;2022-09-12T04:37:34;12.07;88.16
67603;DHT22;54417;47.454;18.918;2022-09-12T04:42:58;12.05;88.22
67603;DHT22;54417;47.454;18.918;2022-09-12T04:48:23;12.14;88.15
67603;DHT22;54417;47.454;18.918;2022-09-12T04:53:48;12.22;87.85
67603;DHT22;54417;47.454;18.918;2022-09-12T04:59:13;12.46;87.18
67603;DHT22;54417;47.454;18.918;2022-09-12T05:04:38;12.72;86.38
67603;DHT22;54417;47.454;18.918;2022-09-12T05:10:02;12.89;85.77
67603;DHT22;54417;47.454;18.918;2022-09-12T05:15:26;13.06;85.33
67603;DHT22;54417;47.454;18.918;2022-09-12T05:20:51;13.30;84.91
67603;DHT22;54417;47.454;18.918;2022-09-12T05:26:15;13.51;84.02
67603;DHT22;54417;47.454;18.918;2022-09-12T05:31:40;13.68;83.71
67603;DHT22;54417;47.454;18.918;2022-09-12T05:37:05;13.89;82.43
67603;DHT22;54417;47.454;18.918;2022-09-12T05:42:29;14.10;81.97
67603;DHT22;54417;47.454;18.918;2022-09-12T05:47:53;14.33;81.55
67603;DHT22;54417;47.454;18.918;2022-09-12T05:53:18;14.54;80.75
67603;DHT22;54417;47.454;18.918;2022-09-12T05:58:44;14.65;80.24
67603;DHT22;54417;47.454;18.918;2022-09-12T06:04:08;14.81;80.08
67603;DHT22;54417;47.454;18.918;2022-09-12T06:09:33;14.99;79.40
67603;DHT22;54417;47.454;18.918;2022-09-12T06:14:57;15.29;78.95
67603;DHT22;54417;47.454;18.918;2022-09-12T06:20:21;15.42;78.83
67603;DHT22;54417;47.454;18.918;2022-09-12T06:25:47;15.56;77.60
67603;DHT22;54417;47.454;18.918;2022-09-12T06:31:13;15.83;77.02
67603;DHT22;54417;47.454;18.918;2022-09-12T06:36:39;15.76;76.83
67603;DHT22;54417;47.454;18.918;2022-09-12T06:42:05;15.80;77.22
67603;DHT22;54417;47.454;18.918;2022-09-12T06:47:30;16.08;75.90
67603;DHT22;54417;47.454;18.918;2022-09-12T06:52:54;16.22;75.83
67603;DHT22;54417;47.454;18.918;2022-09-12T06:58:19;16.41;75.37
67603;DHT22;54417;47.454;18.918;2022-09-12T07:03:46;16.57;74.86
67603;DHT22;54417;47.454;18.918;2022-09-12T07:09:12;16.88;73.80
67603;DHT22;54417;47.454;18.918;2022-09-12T07:14:39;17.00;73.59
67603;DHT22;54417;47.454;18.918;2022-09-12T07:20:04;16.90;72.90
67603;DHT22;54417;47.454;18.918;2022-09-12T07:25:28;17.14;73.37
67603;DHT22;54417;47.454;18.918;2022-09-12T07:30:53;17.36;71.74
67603;DHT22;54417;47.454;18.918;2022-09-12T07:36:19;17.59;70.25
67603;DHT22;54417;47.454;18.918;2022-09-12T07:41:43;17.82;70.21
67603;DHT22;54417;47.454;18.918;2022-09-12T07:47:08;18.14;69.39
67603;DHT22;54417;47.454;18.918;2022-09-12T07:52:32;18.36;69.28
67603;DHT22;54417;47.454;18.918;2022-09-12T07:57:56;18.37;67.47
67603;DHT22;54417;47.454;18.918;2022-09-12T08:03:21;18.47;67.70
67603;DHT22;54417;47.454;18.918;2022-09-12T08:08:45;18.75;67.41
67603;DHT22;54417;47.454;18.918;2022-09-12T08:14:09;19.17;66.74
67603;DHT22;54417;47.454;18.918;2022-09-12T08:19:34;19.19;64.88
67603;DHT22;54417;47.454;18.918;2022-09-12T08:24:58;19.63;65.76
67603;DHT22;54417;47.454;18.918;2022-09-12T08:30:21;19.46;64.37
67603;DHT22;54417;47.454;18.918;2022-09-12T08:35:47;19.34;63.56
67603;DHT22;54417;47.454;18.918;2022-09-12T08:41:17;19.43;64.03
67603;DHT22;54417;47.454;18.918;2022-09-12T08:46:47;19.56;61.71
67603;DHT22;54417;47.454;18.918;2022-09-12T08:52:21;19.94;62.73
67603;DHT22;54417;47.454;18.918;2022-09-12T08:57:46;20.08;61.08
67603;DHT22;54417;47.454;18.918;2022-09-12T09:03:44;20.05;60.64
67603;DHT22;54417;47.454;18.918;2022-09-12T09:09:14;20.59;59.55
67603;DHT22;54417;47.454;18.918;2022-09-12T09:15:12;20.64;59.64
67603;DHT22;54417;47.454;18.918;2022-09-12T09:20:46;20.54;60.29
67603;DHT22;54417;47.454;18.918;2022-09-12T09:26:16;20.62;58.45
67603;DHT22;54417;47.454;18.918;2022-09-12T09:31:50;20.94;57.70
67603;DHT22;54417;47.454;18.918;2022-09-12T09:37:18;20.94;57.13
67603;DHT22;54417;47.454;18.918;2022-09-12T09:42:51;21.46;57.58
67603;DHT22;54417;47.454;18.918;2022-09-12T09:48:18;21.12;56.61
67603;DHT22;54417;47.454;18.918;2022-09-12T09:53:47;20.67;58.99
67603;DHT22;54417;47.454;18.918;2022-09-12T09:59:16;20.01;60.28
67603;DHT22;54417;47.454;18.918;2022-09-12T10:04:52;20.64;59.09
67603;DHT22;54417;47.454;18.918;2022-09-12T10:10:18;21.34;57.39
67603;DHT22;54417;47.454;18.918;2022-09-12T10:15:55;20.69;58.83
67603;DHT22;54417;47.454;18.918;2022-09-12T10:21:27;20.43;59.89
67603;DHT22;54417;47.454;18.918;2022-09-12T10:26:54;20.44;59.35
67603;DHT22;54417;47.454;18.918;2022-09-12T10:32:25;20.71;59.39
67603;DHT22;54417;47.454;18.918;2022-09-12T10:37:54;20.85;58.67
67603;DHT22;54417;47.454;18.918;2022-09-12T10:43:25;20.59;60.70
67603;DHT22;54417;47.454;18.918;2022-09-12T10:49:11;20.59;60.97
67603;DHT22;54417;47.454;18.918;2022-09-12T10:54:35;20.79;60.26
67603;DHT22;54417;47.454;18.918;2022-09-12T11:00:17;21.05;58.97
67603;DHT22;54417;47.454;18.918;2022-09-12T11:05:54;21.38;59.71
67603;DHT22;54417;47.454;18.918;2022-09-12T11:11:40;21.01;59.57
67603;DHT22;54417;47.454;18.918;2022-09-12T11:17:15;20.60;61.25
67603;DHT22;54417;47.454;18.918;2022-09-12T11:28:42;19.92;62.89
67603;DHT22;54417;47.454;18.918;2022-09-12T11:34:15;19.89;62.17
67603;DHT22;54417;47.454;18.918;2022-09-12T11:39:47;19.75;62.30
67603;DHT22;54417;47.454;18.918;2022-09-12T11:45:22;19.78;62.89
67603;DHT22;54417;47.454;18.918;2022-09-12T11:50:46;19.89;63.50
67603;DHT22;54417;47.454;18.918;2022-09-12T11:56:16;20.14;63.28
67603;DHT22;54417;47.454;18.918;2022-09-12T12:01:42;20.42;62.90
67603;DHT22;54417;47.454;18.918;2022-09-12T12:07:10;20.90;59.63
67603;DHT22;54417;47.454;18.918;2022-09-12T12:12:35;20.94;58.64
67603;DHT22;54417;47.454;18.918;2022-09-12T12:18:01;21.08;57.65
67603;DHT22;54417;47.454;18.918;2022-09-12T12:23:28;21.00;58.40
67603;DHT22;54417;47.454;18.918;2022-09-12T12:28:58;20.56;58.50
67603;DHT22;54417;47.454;18.918;2022-09-12T12:34:27;20.43;60.03
67603;DHT22;54417;47.454;18.918;2022-09-12T12:39:58;20.30;60.13
67603;DHT22;54417;47.454;18.918;2022-09-12T12:46:02;20.19;60.49
67603;DHT22;54417;47.454;18.918;2022-09-12T12:51:33;20.26;60.51
67603;DHT22;54417;47.454;18.918;2022-09-12T12:57:15;20.80;58.61
67603;DHT22;54417;47.454;18.918;2022-09-12T13:02:54;21.63;59.20
67603;DHT22;54417;47.454;18.918;2022-09-12T13:08:28;21.76;55.83
67603;DHT22;54417;47.454;18.918;2022-09-12T13:13:58;21.70;53.85
67603;DHT22;54417;47.454;18.918;2022-09-12T13:19:29;21.60;54.00
67603;DHT22;54417;47.454;18.918;2022-09-12T13:24:54;21.66;52.26
67603;DHT22;54417;47.454;18.918;2022-09-12T13:30:18;21.42;50.92
67603;DHT22;54417;47.454;18.918;2022-09-12T13:36:11;21.66;51.85
67603;DHT22;54417;47.454;18.918;2022-09-12T13:42:03;22.00;50.50
67603;DHT22;54417;47.454;18.918;2022-09-12T13:47:32;21.89;49.91
67603;DHT22;54417;47.454;18.918;2022-09-12T13:53:01;21.63;50.44
67603;DHT22;54417;47.454;18.918;2022-09-12T13:58:29;22.08;49.18
67603;DHT22;54417;47.454;18.918;2022-09-12T14:03:57;22.07;48.11
67603;DHT22;54417;47.454;18.918;2022-09-12T14:09:42;22.03;48.77
67603;DHT22;54417;47.454;18.918;2022-09-12T14:15:15;22.07;48.19
67603;DHT22;54417;47.454;18.918;2022-09-12T14:20:40;22.16;49.62
67603;DHT22;54417;47.454;18.918;2022-09-12T14:26:08;22.18;49.07
67603;DHT22;54417;47.454;18.918;2022-09-12T14:31:36;22.10;49.49
67603;DHT22;54417;47.454;18.918;2022-09-12T14:37:04;22.10;48.51
67603;DHT22;54417;47.454;18.918;2022-09-12T14:42:30;22.04;47.99
67603;DHT22;54417;47.454;18.918;2022-09-12T14:47:55;22.00;47.29
67603;DHT22;54417;47.454;18.918;2022-09-12T14:53:24;21.94;48.50
67603;DHT22;54417;47.454;18.918;2022-09-12T14:58:49;21.83;48.32
67603;DHT22;54417;47.454;18.918;2022-09-12T15:04:38;21.60;49.07
67603;DHT22;54417;47.454;18.918;2022-09-12T15:10:05;21.21;49.03
67603;DHT22;54417;47.454;18.918;2022-09-12T15:15:31;21.00;50.29
67603;DHT22;54417;47.454;18.918;2022-09-12T15:20:57;21.00;50.80
67603;DHT22;54417;47.454;18.918;2022-09-12T15:26:24;20.95;50.49
67603;DHT22;54417;47.454;18.918;2022-09-12T15:31:50;21.35;49.45
67603;DHT22;54417;47.454;18.918;2022-09-12T15:37:14;23.78;43.11
67603;DHT22;54417;47.454;18.918;2022-09-12T15:42:39;24.05;40.74
67603;DHT22;54417;47.454;18.918;2022-09-12T15:48:04;24.28;40.11
67603;DHT22;54417;47.454;18.918;2022-09-12T15:53:30;24.61;39.50
67603;DHT22;54417;47.454;18.918;2022-09-12T15:58:54;22.85;42.44
67603;DHT22;54417;47.454;18.918;2022-09-12T16:04:24;21.29;46.83
67603;DHT22;54417;47.454;18.918;2022-09-12T16:09:49;20.49;48.40
67603;DHT22;54417;47.454;18.918;2022-09-12T16:15:14;20.01;48.94
67603;DHT22;54417;47.454;18.918;2022-09-12T16:20:39;19.74;49.54
67603;DHT22;54417;47.454;18.918;2022-09-12T16:26:05;19.46;49.70
67603;DHT22;54417;47.454;18.918;2022-09-12T16:31:30;19.29;50.53
67603;DHT22;54417;47.454;18.918;2022-09-12T16:36:55;19.06;51.82
67603;DHT22;54417;47.454;18.918;2022-09-12T16:42:19;18.81;51.87
67603;DHT22;54417;47.454;18.918;2022-09-12T16:47:43;18.58;53.30
67603;DHT22;54417;47.454;18.918;2022-09-12T16:53:08;18.31;53.61
67603;DHT22;54417;47.454;18.918;2022-09-12T16:58:32;17.97;54.76
67603;DHT22;54417;47.454;18.918;2022-09-12T17:04:04;17.78;56.05
67603;DHT22;54417;47.454;18.918;2022-09-12T17:09:30;17.53;57.45
67603;DHT22;54417;47.454;18.918;2022-09-12T17:14:53;17.23;58.02
67603;DHT22;54417;47.454;18.918;2022-09-12T17:20:17;17.02;58.80
67603;DHT22;54417;47.454;18.918;2022-09-12T17:25:45;16.79;60.89
67603;DHT22;54417;47.454;18.918;2022-09-12T17:31:10;16.57;60.99
67603;DHT22;54417;47.454;18.918;2022-09-12T17:36:35;16.32;61.88
67603;DHT22;54417;47.454;18.918;2022-09-12T17:42:02;16.22;62.13
67603;DHT22;54417;47.454;18.918;2022-09-12T17:47:26;16.07;62.62
67603;DHT22;54417;47.454;18.918;2022-09-12T17:52:50;15.86;67.72
67603;DHT22;54417;47.454;18.918;2022-09-12T17:58:15;15.46;67.78
67603;DHT22;54417;47.454;18.918;2022-09-12T18:03:39;15.20;68.55
67603;DHT22;54417;47.454;18.918;2022-09-12T18:09:05;15.29;66.64
67603;DHT22;54417;47.454;18.918;2022-09-12T18:14:30;15.30;65.27
67603;DHT22;54417;47.454;18.918;2022-09-12T18:19:54;15.28;65.13
67603;DHT22;54417;47.454;18.918;2022-09-12T18:25:18;15.28;64.74
67603;DHT22;54417;47.454;18.918;2022-09-12T18:30:43;15.36;63.81
67603;DHT22;54417;47.454;18.918;2022-09-12T18:36:08;15.16;66.72
67603;DHT22;54417;47.454;18.918;2022-09-12T18:41:32;14.82;68.14
67603;DHT22;54417;47.454;18.918;2022-09-12T18:46:57;14.38;69.84
67603;DHT22;54417;47.454;18.918;2022-09-12T18:52:21;14.22;69.86
67603;DHT22;54417;47.454;18.918;2022-09-12T18:57:45;14.56;66.79
67603;DHT22;54417;47.454;18.918;2022-09-12T19:03:10;14.34;69.07
67603;DHT22;54417;47.454;18.918;2022-09-12T19:08:34;14.03;69.43
67603;DHT22;54417;47.454;18.918;2022-09-12T19:13:58;13.93;71.86
67603;DHT22;54417;47.454;18.918;2022-09-12T19:19:23;13.93;70.40
67603;DHT22;54417;47.454;18.918;2022-09-12T19:24:47;13.81;68.82
67603;DHT22;54417;47.454;18.918;2022-09-12T19:30:11;13.92;68.88
67603;DHT22;54417;47.454;18.918;2022-09-12T19:35:36;13.68;70.76
67603;DHT22;54417;47.454;18.918;2022-09-12T19:41:01;13.48;71.54
67603;DHT22;54417;47.454;18.918;2022-09-12T19:46:25;13.13;74.15
67603;DHT22;54417;47.454;18.918;2022-09-12T19:51:51;12.90;74.33
67603;DHT22;54417;47.454;18.918;2022-09-12T19:57:14;12.65;75.43
67603;DHT22;54417;47.454;18.918;2022-09-12T20:02:38;12.53;74.30
67603;DHT22;54417;47.454;18.918;2022-09-12T20:08:03;12.46;75.44
67603;DHT22;54417;47.454;18.918;2022-09-12T20:13:27;12.48;74.19
67603;DHT22;54417;47.454;18.918;2022-09-12T20:18:53;12.48;74.15
67603;DHT22;54417;47.454;18.918;2022-09-12T20:24:18;12.38;75.96
67603;DHT22;54417;47.454;18.918;2022-09-12T20:29:42;12.13;75.35
67603;DHT22;54417;47.454;18.918;2022-09-12T20:35:06;12.01;75.55
67603;DHT22;54417;47.454;18.918;2022-09-12T20:40:32;11.97;75.93
67603;DHT22;54417;47.454;18.918;2022-09-12T20:45:55;11.91;76.09
67603;DHT22;54417;47.454;18.918;2022-09-12T20:51:20;11.83;76.09
67603;DHT22;54417;47.454;18.918;2022-09-12T20:56:45;11.73;76.25
67603;DHT22;54417;47.454;18.918;2022-09-12T21:02:13;11.65;76.23
67603;DHT22;54417;47.454;18.918;2022-09-12T21:07:37;11.33;78.69
67603;DHT22;54417;47.454;18.918;2022-09-12T21:13:02;11.11;79.51
67603;DHT22;54417;47.454;18.918;2022-09-12T21:18:26;11.14;77.71
67603;DHT22;54417;47.454;18.918;2022-09-12T21:23:49;11.05;79.25
67603;DHT22;54417;47.454;18.918;2022-09-12T21:29:16;10.88;78.92
67603;DHT22;54417;47.454;18.918;2022-09-12T21:34:40;10.74;79.06
67603;DHT22;54417;47.454;18.918;2022-09-12T21:40:04;10.60;79.20
67603;DHT22;54417;47.454;18.918;2022-09-12T21:45:30;10.49;80.09
67603;DHT22;54417;47.454;18.918;2022-09-12T21:50:53;10.39;79.75
67603;DHT22;54417;47.454;18.918;2022-09-12T21:56:17;10.60;78.42
67603;DHT22;54417;47.454;18.918;2022-09-12T22:01:42;10.56;80.38
67603;DHT22;54417;47.454;18.918;2022-09-12T22:07:06;10.46;80.39
67603;DHT22;54417;47.454;18.918;2022-09-12T22:12:30;10.39;80.66
67603;DHT22;54417;47.454;18.918;2022-09-12T22:17:56;10.20;80.27
67603;DHT22;54417;47.454;18.918;2022-09-12T22:23:19;10.09;81.40
67603;DHT22;54417;47.454;18.918;2022-09-12T22:29:01;9.94;81.88
67603;DHT22;54417;47.454;18.918;2022-09-12T22:34:26;9.79;81.81
67603;DHT22;54417;47.454;18.918;2022-09-12T22:39:50;9.55;81.75
67603;DHT22;54417;47.454;18.918;2022-09-12T22:45:15;9.54;82.25
67603;DHT22;54417;47.454;18.918;2022-09-12T22:50:40;9.33;82.93
67603;DHT22;54417;47.454;18.918;2022-09-12T22:56:05;9.20;83.36
67603;DHT22;54417;47.454;18.918;2022-09-12T23:01:28;9.15;83.69
67603;DHT22;54417;47.454;18.918;2022-09-12T23:06:55;9.13;83.38
67603;DHT22;54417;47.454;18.918;2022-09-12T23:12:19;8.99;84.45
67603;DHT22;54417;47.454;18.918;2022-09-12T23:17:42;8.85;84.70
67603;DHT22;54417;47.454;18.918;2022-09-12T23:23:07;8.76;85.20
67603;DHT22;54417;47.454;18.918;2022-09-12T23:28:33;8.76;85.27
67603;DHT22;54417;47.454;18.918;2022-09-12T23:33:59;8.83;84.84
67603;DHT22;54417;47.454;18.918;2022-09-12T23:39:24;8.79;85.01
67603;DHT22;54417;47.454;18.918;2022-09-12T23:44:48;8.89;84.96
67603;DHT22;54417;47.454;18.918;2022-09-12T23:50:11;8.76;85.71
67603;DHT22;54417;47.454;18.918;2022-09-12T23:55:36;8.64;85.89
